sensor_id;sensor_type;location;lat;lon;timestamp;pressure;altitude;pressure_sealevel;temperature
60936;BMP280;46804;51.786;19.520;2023-03-23T00:03:58;156849.44;;;10.46
60936;BMP280;46804;51.786;19.520;2023-03-23T00:07:59;156857.16;;;10.49
60936;BMP280;46804;51.786;19.520;2023-03-23T00:12:02;156878.97;;;10.57
60936;BMP280;46804;51.786;19.520;2023-03-23T00:16:05;156877.66;;;10.57
60936;BMP280;46804;51.786;19.520;2023-03-23T00:20:06;156869.97;;;10.54
60936;BMP280;46804;51.786;19.520;2023-03-23T00:24:12;156878.97;;;10.57
60936;BMP280;46804;51.786;19.520;2023-03-23T00:28:14;156866.13;;;10.52
60936;BMP280;46804;51.786;19.520;2023-03-23T00:32:14;156840.47;;;10.43
60936;BMP280;46804;51.786;19.520;2023-03-23T00:36:16;156845.63;;;10.45
60936;BMP280;46804;51.786;19.520;2023-03-23T00:40:18;156821.25;;;10.35
60936;BMP280;46804;51.786;19.520;2023-03-23T00:44:19;156814.78;;;10.33
60936;BMP280;46804;51.786;19.520;2023-03-23T00:48:24;156803.25;;;10.28
60936;BMP280;46804;51.786;19.520;2023-03-23T00:52:25;156793.03;;;10.24
60936;BMP280;46804;51.786;19.520;2023-03-23T00:56:26;156789.16;;;10.23
60936;BMP280;46804;51.786;19.520;2023-03-23T01:00:27;156776.34;;;10.18
60936;BMP280;46804;51.786;19.520;2023-03-23T01:04:27;156754.53;;;10.10
60936;BMP280;46804;51.786;19.520;2023-03-23T01:08:32;156762.19;;;10.13
60936;BMP280;46804;51.786;19.520;2023-03-23T01:12:32;156759.66;;;10.12
60936;BMP280;46804;51.786;19.520;2023-03-23T01:16:33;156749.38;;;10.08
60936;BMP280;46804;51.786;19.520;2023-03-23T01:20:35;156749.38;;;10.08
60936;BMP280;46804;51.786;19.520;2023-03-23T01:24:36;156744.25;;;10.06
60936;BMP280;46804;51.786;19.520;2023-03-23T01:28:39;156739.13;;;10.04
60936;BMP280;46804;51.786;19.520;2023-03-23T01:32:40;156713.44;;;9.94
60936;BMP280;46804;51.786;19.520;2023-03-23T01:36:41;156708.34;;;9.92
60936;BMP280;46804;51.786;19.520;2023-03-23T01:40:43;156709.63;;;9.92
60936;BMP280;46804;51.786;19.520;2023-03-23T01:48:46;156705.75;;;9.91
60936;BMP280;46804;51.786;19.520;2023-03-23T01:52:47;156698.03;;;9.88
60936;BMP280;46804;51.786;19.520;2023-03-23T01:57:04;156696.75;;;9.87
60936;BMP280;46804;51.786;19.520;2023-03-23T02:01:12;156659.53;;;9.73
60936;BMP280;46804;51.786;19.520;2023-03-23T02:05:19;156632.59;;;9.63
60936;BMP280;46804;51.786;19.520;2023-03-23T02:09:21;156606.97;;;9.53
60936;BMP280;46804;51.786;19.520;2023-03-23T02:13:22;156596.72;;;9.49
60936;BMP280;46804;51.786;19.520;2023-03-23T02:17:31;156587.72;;;9.46
60936;BMP280;46804;51.786;19.520;2023-03-23T02:22:15;156580.03;;;9.43
60936;BMP280;46804;51.786;19.520;2023-03-23T02:26:38;156572.34;;;9.40
60936;BMP280;46804;51.786;19.520;2023-03-23T02:30:53;156562.09;;;9.36
60936;BMP280;46804;51.786;19.520;2023-03-23T02:35:07;156537.69;;;9.26
60936;BMP280;46804;51.786;19.520;2023-03-23T02:39:14;156541.56;;;9.28
60936;BMP280;46804;51.786;19.520;2023-03-23T02:43:22;156519.75;;;9.19
60936;BMP280;46804;51.786;19.520;2023-03-23T02:47:25;156505.69;;;9.14
60936;BMP280;46804;51.786;19.520;2023-03-23T02:51:28;156490.28;;;9.08
60936;BMP280;46804;51.786;19.520;2023-03-23T02:55:30;156495.41;;;9.10
60936;BMP280;46804;51.786;19.520;2023-03-23T02:59:31;156487.75;;;9.07
60936;BMP280;46804;51.786;19.520;2023-03-23T03:03:32;156468.50;;;9.00
60936;BMP280;46804;51.786;19.520;2023-03-23T03:07:39;156453.09;;;8.94
60936;BMP280;46804;51.786;19.520;2023-03-23T03:11:52;156436.47;;;8.87
60936;BMP280;46804;51.786;19.520;2023-03-23T03:17:06;156418.50;;;8.80
60936;BMP280;46804;51.786;19.520;2023-03-23T03:20:49;156418.50;;;8.80
60936;BMP280;46804;51.786;19.520;2023-03-23T03:24:51;156394.16;;;8.71
60936;BMP280;46804;51.786;19.520;2023-03-23T03:28:53;156372.38;;;8.63
60936;BMP280;46804;51.786;19.520;2023-03-23T03:32:54;156360.84;;;8.58
60936;BMP280;46804;51.786;19.520;2023-03-23T03:36:56;156350.59;;;8.54
60936;BMP280;46804;51.786;19.520;2023-03-23T03:40:59;156349.31;;;8.54
60936;BMP280;46804;51.786;19.520;2023-03-23T03:44:59;156340.38;;;8.50
60936;BMP280;46804;51.786;19.520;2023-03-23T03:49:03;156356.97;;;8.57
60936;BMP280;46804;51.786;19.520;2023-03-23T03:53:05;156367.25;;;8.61
60936;BMP280;46804;51.786;19.520;2023-03-23T03:57:06;156403.16;;;8.75
60936;BMP280;46804;51.786;19.520;2023-03-23T04:01:07;156403.16;;;8.75
60936;BMP280;46804;51.786;19.520;2023-03-23T04:05:08;156422.34;;;8.82
60936;BMP280;46804;51.786;19.520;2023-03-23T04:09:10;156431.34;;;8.85
60936;BMP280;46804;51.786;19.520;2023-03-23T04:13:11;156428.75;;;8.84
60936;BMP280;46804;51.786;19.520;2023-03-23T04:17:11;156441.56;;;8.89
60936;BMP280;46804;51.786;19.520;2023-03-23T04:21:12;156464.69;;;8.98
60936;BMP280;46804;51.786;19.520;2023-03-23T04:25:16;156474.91;;;9.02
60936;BMP280;46804;51.786;19.520;2023-03-23T04:29:18;156483.88;;;9.06
60936;BMP280;46804;51.786;19.520;2023-03-23T04:33:21;156501.81;;;9.13
60936;BMP280;46804;51.786;19.520;2023-03-23T04:37:22;156521.03;;;9.20
60936;BMP280;46804;51.786;19.520;2023-03-23T04:41:26;156530.03;;;9.23
60936;BMP280;46804;51.786;19.520;2023-03-23T04:45:26;156528.75;;;9.23
60936;BMP280;46804;51.786;19.520;2023-03-23T04:49:28;156546.69;;;9.30
60936;BMP280;46804;51.786;19.520;2023-03-23T04:53:31;156554.38;;;9.33
60936;BMP280;46804;51.786;19.520;2023-03-23T04:57:32;156550.56;;;9.31
60936;BMP280;46804;51.786;19.520;2023-03-23T05:01:33;156549.25;;;9.31
60936;BMP280;46804;51.786;19.520;2023-03-23T05:05:37;156549.25;;;9.31
60936;BMP280;46804;51.786;19.520;2023-03-23T05:09:37;156558.22;;;9.34
60936;BMP280;46804;51.786;19.520;2023-03-23T05:13:38;156567.22;;;9.38
60936;BMP280;46804;51.786;19.520;2023-03-23T05:17:39;156577.44;;;9.42
60936;BMP280;46804;51.786;19.520;2023-03-23T05:21:46;156578.75;;;9.42
60936;BMP280;46804;51.786;19.520;2023-03-23T05:25:57;156589.03;;;9.46
60936;BMP280;46804;51.786;19.520;2023-03-23T05:30:00;156610.78;;;9.54
60936;BMP280;46804;51.786;19.520;2023-03-23T05:34:01;156628.78;;;9.61
60936;BMP280;46804;51.786;19.520;2023-03-23T05:38:03;156642.88;;;9.67
60936;BMP280;46804;51.786;19.520;2023-03-23T05:42:05;156654.41;;;9.71
60936;BMP280;46804;51.786;19.520;2023-03-23T05:46:06;156664.69;;;9.75
60936;BMP280;46804;51.786;19.520;2023-03-23T05:50:08;156681.34;;;9.82
60936;BMP280;46804;51.786;19.520;2023-03-23T05:54:13;156687.75;;;9.84
60936;BMP280;46804;51.786;19.520;2023-03-23T05:58:14;156699.31;;;9.88
60936;BMP280;46804;51.786;19.520;2023-03-23T06:02:15;156722.44;;;9.97
60936;BMP280;46804;51.786;19.520;2023-03-23T06:06:16;156751.94;;;10.09
60936;BMP280;46804;51.786;19.520;2023-03-23T06:10:18;156786.56;;;10.22
60936;BMP280;46804;51.786;19.520;2023-03-23T06:14:19;156807.09;;;10.30
60936;BMP280;46804;51.786;19.520;2023-03-23T06:18:19;156827.66;;;10.38
60936;BMP280;46804;51.786;19.520;2023-03-23T06:22:21;156846.88;;;10.45
60936;BMP280;46804;51.786;19.520;2023-03-23T06:26:24;156868.72;;;10.53
60936;BMP280;46804;51.786;19.520;2023-03-23T06:30:26;156899.50;;;10.65
60936;BMP280;46804;51.786;19.520;2023-03-23T06:34:27;156926.44;;;10.76
60936;BMP280;46804;51.786;19.520;2023-03-23T06:38:28;156943.13;;;10.82
60936;BMP280;46804;51.786;19.520;2023-03-23T06:42:29;156968.84;;;10.92
60936;BMP280;46804;51.786;19.520;2023-03-23T06:46:30;157003.50;;;11.05
60936;BMP280;46804;51.786;19.520;2023-03-23T06:50:30;157025.31;;;11.14
60936;BMP280;46804;51.786;19.520;2023-03-23T06:54:31;157052.25;;;11.24
60936;BMP280;46804;51.786;19.520;2023-03-23T06:58:32;157083.09;;;11.36
60936;BMP280;46804;51.786;19.520;2023-03-23T07:02:33;157138.31;;;11.57
60936;BMP280;46804;51.786;19.520;2023-03-23T07:06:33;157180.72;;;11.73
60936;BMP280;46804;51.786;19.520;2023-03-23T07:10:34;157250.09;;;12.00
60936;BMP280;46804;51.786;19.520;2023-03-23T07:14:35;157298.94;;;12.19
60936;BMP280;46804;51.786;19.520;2023-03-23T07:18:36;157298.94;;;12.19
60936;BMP280;46804;51.786;19.520;2023-03-23T07:22:38;157327.19;;;12.29
60936;BMP280;46804;51.786;19.520;2023-03-23T07:26:41;157405.59;;;12.59
60936;BMP280;46804;51.786;19.520;2023-03-23T07:30:43;157444.09;;;12.74
60936;BMP280;46804;51.786;19.520;2023-03-23T07:34:43;157529.00;;;13.07
60936;BMP280;46804;51.786;19.520;2023-03-23T07:38:44;157592.00;;;13.31
60936;BMP280;46804;51.786;19.520;2023-03-23T07:42:46;157739.97;;;13.88
60936;BMP280;46804;51.786;19.520;2023-03-23T07:46:51;157833.91;;;14.24
60936;BMP280;46804;51.786;19.520;2023-03-23T07:50:52;157943.28;;;14.65
60936;BMP280;46804;51.786;19.520;2023-03-23T07:54:53;157984.53;;;14.81
60936;BMP280;46804;51.786;19.520;2023-03-23T07:58:53;157983.19;;;14.81
60936;BMP280;46804;51.786;19.520;2023-03-23T08:02:56;158011.50;;;14.92
60936;BMP280;46804;51.786;19.520;2023-03-23T08:06:57;158063.06;;;15.11
60936;BMP280;46804;51.786;19.520;2023-03-23T08:10:58;158244.66;;;15.81
60936;BMP280;46804;51.786;19.520;2023-03-23T08:14:59;158235.66;;;15.77
60936;BMP280;46804;51.786;19.520;2023-03-23T08:19:00;158284.59;;;15.96
60936;BMP280;46804;51.786;19.520;2023-03-23T08:23:01;158382.59;;;16.33
60936;BMP280;46804;51.786;19.520;2023-03-23T08:27:03;158329.69;;;16.13
60936;BMP280;46804;51.786;19.520;2023-03-23T08:31:08;158349.09;;;16.21
60936;BMP280;46804;51.786;19.520;2023-03-23T08:35:11;158291.03;;;15.98
60936;BMP280;46804;51.786;19.520;2023-03-23T08:39:13;158229.22;;;15.75
60936;BMP280;46804;51.786;19.520;2023-03-23T08:43:14;158245.97;;;15.81
60936;BMP280;46804;51.786;19.520;2023-03-23T08:47:15;158274.31;;;15.92
60936;BMP280;46804;51.786;19.520;2023-03-23T08:51:16;158320.69;;;16.10
60936;BMP280;46804;51.786;19.520;2023-03-23T08:55:18;158453.47;;;16.61
60936;BMP280;46804;51.786;19.520;2023-03-23T08:59:18;158493.44;;;16.76
60936;BMP280;46804;51.786;19.520;2023-03-23T09:03:19;158668.84;;;17.43
60936;BMP280;46804;51.786;19.520;2023-03-23T09:07:20;158881.72;;;18.24
60936;BMP280;46804;51.786;19.520;2023-03-23T09:11:21;158952.72;;;18.51
60936;BMP280;46804;51.786;19.520;2023-03-23T09:15:22;159279.41;;;19.76
60936;BMP280;46804;51.786;19.520;2023-03-23T09:19:23;159453.88;;;20.42
60936;BMP280;46804;51.786;19.520;2023-03-23T09:23:24;159471.97;;;20.49
60936;BMP280;46804;51.786;19.520;2023-03-23T09:27:25;159654.28;;;21.19
60936;BMP280;46804;51.786;19.520;2023-03-23T09:31:26;159680.09;;;21.29
60936;BMP280;46804;51.786;19.520;2023-03-23T09:35:28;159761.66;;;21.60
60936;BMP280;46804;51.786;19.520;2023-03-23T09:39:30;159534.06;;;20.73
60936;BMP280;46804;51.786;19.520;2023-03-23T09:52:16;159619.38;;;21.06
60936;BMP280;46804;51.786;19.520;2023-03-23T09:56:17;159735.78;;;21.50
60936;BMP280;46804;51.786;19.520;2023-03-23T10:00:27;159973.84;;;22.41
60936;BMP280;46804;51.786;19.520;2023-03-23T10:04:46;159680.09;;;21.29
60936;BMP280;46804;51.786;19.520;2023-03-23T10:08:53;159637.47;;;21.12
60936;BMP280;46804;51.786;19.520;2023-03-23T10:13:44;159451.28;;;20.42
60936;BMP280;46804;51.786;19.520;2023-03-23T10:17:27;159456.44;;;20.43
60936;BMP280;46804;51.786;19.520;2023-03-23T10:21:31;159385.41;;;20.16
60936;BMP280;46804;51.786;19.520;2023-03-23T10:25:35;159340.19;;;19.99
60936;BMP280;46804;51.786;19.520;2023-03-23T10:29:42;159415.09;;;20.28
60936;BMP280;46804;51.786;19.520;2023-03-23T10:33:47;159803.03;;;21.76
60936;BMP280;46804;51.786;19.520;2023-03-23T10:37:58;159878.03;;;22.04
60936;BMP280;46804;51.786;19.520;2023-03-23T10:42:01;159729.31;;;21.47
60936;BMP280;46804;51.786;19.520;2023-03-23T10:46:26;159598.66;;;20.98
60936;BMP280;46804;51.786;19.520;2023-03-23T10:50:34;159744.84;;;21.53
60936;BMP280;46804;51.786;19.520;2023-03-23T10:54:46;159883.22;;;22.06
60936;BMP280;46804;51.786;19.520;2023-03-23T10:58:50;159967.38;;;22.38
60936;BMP280;46804;51.786;19.520;2023-03-23T11:07:00;159791.38;;;21.71
60936;BMP280;46804;51.786;19.520;2023-03-23T11:11:11;159826.31;;;21.84
60936;BMP280;46804;51.786;19.520;2023-03-23T11:15:26;159751.31;;;21.56
60936;BMP280;46804;51.786;19.520;2023-03-23T11:19:31;159416.38;;;20.28
60936;BMP280;46804;51.786;19.520;2023-03-23T11:23:37;159381.50;;;20.15
60936;BMP280;46804;51.786;19.520;2023-03-23T11:27:40;159363.44;;;20.08
60936;BMP280;46804;51.786;19.520;2023-03-23T11:31:48;159519.81;;;20.68
60936;BMP280;46804;51.786;19.520;2023-03-23T11:35:53;159376.34;;;20.13
60936;BMP280;46804;51.786;19.520;2023-03-23T11:39:57;159201.88;;;19.46
60936;BMP280;46804;51.786;19.520;2023-03-23T11:44:03;159105.03;;;19.09
60936;BMP280;46804;51.786;19.520;2023-03-23T11:48:35;159136.06;;;19.21
60936;BMP280;46804;51.786;19.520;2023-03-23T11:52:49;159048.19;;;18.88
60936;BMP280;46804;51.786;19.520;2023-03-23T11:56:53;159023.69;;;18.78
60936;BMP280;46804;51.786;19.520;2023-03-23T12:00:57;159141.22;;;19.23
60936;BMP280;46804;51.786;19.520;2023-03-23T12:27:14;158783.63;;;17.87
60936;BMP280;46804;51.786;19.520;2023-03-23T12:35:47;158793.94;;;17.91
60936;BMP280;46804;51.786;19.520;2023-03-23T12:44:12;158854.59;;;18.14
60936;BMP280;46804;51.786;19.520;2023-03-23T12:48:42;158792.66;;;17.90
60936;BMP280;46804;51.786;19.520;2023-03-23T12:53:35;158875.28;;;18.22
60936;BMP280;46804;51.786;19.520;2023-03-23T13:01:38;158821.06;;;18.01
60936;BMP280;46804;51.786;19.520;2023-03-23T13:05:59;158892.03;;;18.28
60936;BMP280;46804;51.786;19.520;2023-03-23T13:10:21;158839.16;;;18.08
60936;BMP280;46804;51.786;19.520;2023-03-23T13:14:45;158694.59;;;17.53
60936;BMP280;46804;51.786;19.520;2023-03-23T13:23:40;158934.66;;;18.44
60936;BMP280;46804;51.786;19.520;2023-03-23T13:27:41;158817.16;;;18.00
60936;BMP280;46804;51.786;19.520;2023-03-23T13:31:42;158888.16;;;18.27
60936;BMP280;46804;51.786;19.520;2023-03-23T13:35:43;158948.84;;;18.50
60936;BMP280;46804;51.786;19.520;2023-03-23T13:39:59;158982.38;;;18.63
60936;BMP280;46804;51.786;19.520;2023-03-23T13:44:15;158948.84;;;18.50
60936;BMP280;46804;51.786;19.520;2023-03-23T13:48:22;158932.06;;;18.43
60936;BMP280;46804;51.786;19.520;2023-03-23T13:52:47;158821.06;;;18.01
60936;BMP280;46804;51.786;19.520;2023-03-23T13:56:59;158810.72;;;17.97
60936;BMP280;46804;51.786;19.520;2023-03-23T14:01:11;158724.31;;;17.64
60936;BMP280;46804;51.786;19.520;2023-03-23T14:09:27;158621.09;;;17.25
60936;BMP280;46804;51.786;19.520;2023-03-23T14:17:43;158672.72;;;17.44
60936;BMP280;46804;51.786;19.520;2023-03-23T14:21:55;158675.28;;;17.45
60936;BMP280;46804;51.786;19.520;2023-03-23T14:26:00;158603.03;;;17.18
60936;BMP280;46804;51.786;19.520;2023-03-23T14:30:16;158694.59;;;17.53
60936;BMP280;46804;51.786;19.520;2023-03-23T14:34:19;158643.03;;;17.33
60936;BMP280;46804;51.786;19.520;2023-03-23T14:38:21;158657.22;;;17.38
60936;BMP280;46804;51.786;19.520;2023-03-23T14:42:34;158595.34;;;17.15
60936;BMP280;46804;51.786;19.520;2023-03-23T14:46:36;158617.25;;;17.23
60936;BMP280;46804;51.786;19.520;2023-03-23T14:50:39;158536.00;;;16.92
60936;BMP280;46804;51.786;19.520;2023-03-23T14:54:40;158467.66;;;16.66
60936;BMP280;46804;51.786;19.520;2023-03-23T14:58:46;158488.25;;;16.74
60936;BMP280;46804;51.786;19.520;2023-03-23T15:02:53;158505.03;;;16.80
60936;BMP280;46804;51.786;19.520;2023-03-23T15:07:02;158429.00;;;16.51
60936;BMP280;46804;51.786;19.520;2023-03-23T15:15:27;158484.38;;;16.72
60936;BMP280;46804;51.786;19.520;2023-03-23T15:19:34;158477.94;;;16.70
60936;BMP280;46804;51.786;19.520;2023-03-23T15:23:41;158457.34;;;16.62
60936;BMP280;46804;51.786;19.520;2023-03-23T15:27:48;158457.34;;;16.62
60936;BMP280;46804;51.786;19.520;2023-03-23T15:31:52;158458.63;;;16.63
60936;BMP280;46804;51.786;19.520;2023-03-23T15:35:55;158449.59;;;16.59
60936;BMP280;46804;51.786;19.520;2023-03-23T15:39:58;158430.28;;;16.52
60936;BMP280;46804;51.786;19.520;2023-03-23T15:44:10;158392.88;;;16.37
60936;BMP280;46804;51.786;19.520;2023-03-23T15:48:12;158425.13;;;16.50
60936;BMP280;46804;51.786;19.520;2023-03-23T15:52:14;158418.69;;;16.47
60936;BMP280;46804;51.786;19.520;2023-03-23T15:56:14;158398.03;;;16.39
60936;BMP280;46804;51.786;19.520;2023-03-23T16:00:17;158380.00;;;16.32
60936;BMP280;46804;51.786;19.520;2023-03-23T16:04:19;158349.09;;;16.21
60936;BMP280;46804;51.786;19.520;2023-03-23T16:08:20;158347.78;;;16.20
60936;BMP280;46804;51.786;19.520;2023-03-23T16:12:20;158269.16;;;15.90
60936;BMP280;46804;51.786;19.520;2023-03-23T16:16:51;158266.56;;;15.89
60936;BMP280;46804;51.786;19.520;2023-03-23T16:20:54;158240.81;;;15.79
60936;BMP280;46804;51.786;19.520;2023-03-23T16:24:55;158194.41;;;15.62
60936;BMP280;46804;51.786;19.520;2023-03-23T16:28:56;158211.16;;;15.68
60936;BMP280;46804;51.786;19.520;2023-03-23T16:32:56;158181.53;;;15.57
60936;BMP280;46804;51.786;19.520;2023-03-23T16:36:57;158154.47;;;15.46
60936;BMP280;46804;51.786;19.520;2023-03-23T16:40:59;158074.66;;;15.16
60936;BMP280;46804;51.786;19.520;2023-03-23T16:44:59;158032.13;;;14.99
60936;BMP280;46804;51.786;19.520;2023-03-23T16:49:00;158026.97;;;14.97
60936;BMP280;46804;51.786;19.520;2023-03-23T16:53:02;157983.19;;;14.81
60936;BMP280;46804;51.786;19.520;2023-03-23T16:57:03;157965.19;;;14.74
60936;BMP280;46804;51.786;19.520;2023-03-23T17:01:04;157929.16;;;14.60
60936;BMP280;46804;51.786;19.520;2023-03-23T17:05:05;157932.97;;;14.61
60936;BMP280;46804;51.786;19.520;2023-03-23T17:09:06;157938.13;;;14.63
60936;BMP280;46804;51.786;19.520;2023-03-23T17:13:07;157916.31;;;14.55
60936;BMP280;46804;51.786;19.520;2023-03-23T17:17:08;157899.56;;;14.49
60936;BMP280;46804;51.786;19.520;2023-03-23T17:21:08;157877.69;;;14.40
60936;BMP280;46804;51.786;19.520;2023-03-23T17:25:09;157885.38;;;14.43
60936;BMP280;46804;51.786;19.520;2023-03-23T17:29:10;157867.38;;;14.36
60936;BMP280;46804;51.786;19.520;2023-03-23T17:33:12;157896.97;;;14.48
60936;BMP280;46804;51.786;19.520;2023-03-23T17:37:12;157873.81;;;14.39
60936;BMP280;46804;51.786;19.520;2023-03-23T17:41:13;157882.84;;;14.42
60936;BMP280;46804;51.786;19.520;2023-03-23T17:45:14;157872.53;;;14.38
60936;BMP280;46804;51.786;19.520;2023-03-23T17:49:15;157851.91;;;14.30
60936;BMP280;46804;51.786;19.520;2023-03-23T17:53:16;157857.06;;;14.32
60936;BMP280;46804;51.786;19.520;2023-03-23T17:57:18;157877.69;;;14.40
60936;BMP280;46804;51.786;19.520;2023-03-23T18:01:19;157854.53;;;14.31
60936;BMP280;46804;51.786;19.520;2023-03-23T18:05:20;157828.75;;;14.22
60936;BMP280;46804;51.786;19.520;2023-03-23T18:09:21;157830.03;;;14.22
60936;BMP280;46804;51.786;19.520;2023-03-23T18:13:27;157805.59;;;14.13
60936;BMP280;46804;51.786;19.520;2023-03-23T18:17:28;157795.31;;;14.09
60936;BMP280;46804;51.786;19.520;2023-03-23T18:21:29;157791.47;;;14.07
60936;BMP280;46804;51.786;19.520;2023-03-23T18:25:30;157754.09;;;13.93
60936;BMP280;46804;51.786;19.520;2023-03-23T18:29:31;157755.38;;;13.93
60936;BMP280;46804;51.786;19.520;2023-03-23T18:33:32;157766.94;;;13.98
60936;BMP280;46804;51.786;19.520;2023-03-23T18:37:34;157782.44;;;14.04
60936;BMP280;46804;51.786;19.520;2023-03-23T18:41:35;157777.28;;;14.02
60936;BMP280;46804;51.786;19.520;2023-03-23T18:45:36;157761.78;;;13.96
60936;BMP280;46804;51.786;19.520;2023-03-23T18:49:37;157778.56;;;14.02
60936;BMP280;46804;51.786;19.520;2023-03-23T18:53:38;157764.38;;;13.97
60936;BMP280;46804;51.786;19.520;2023-03-23T18:57:39;157764.38;;;13.97
60936;BMP280;46804;51.786;19.520;2023-03-23T19:01:40;157748.94;;;13.91
60936;BMP280;46804;51.786;19.520;2023-03-23T19:05:40;157724.53;;;13.82
60936;BMP280;46804;51.786;19.520;2023-03-23T19:09:42;157723.25;;;13.81
60936;BMP280;46804;51.786;19.520;2023-03-23T19:13:44;157741.25;;;13.88
60936;BMP280;46804;51.786;19.520;2023-03-23T19:17:45;157720.66;;;13.80
60936;BMP280;46804;51.786;19.520;2023-03-23T19:21:46;157736.09;;;13.86
60936;BMP280;46804;51.786;19.520;2023-03-23T19:25:47;157727.06;;;13.83
60936;BMP280;46804;51.786;19.520;2023-03-23T19:29:48;157709.06;;;13.76
60936;BMP280;46804;51.786;19.520;2023-03-23T19:33:50;157710.34;;;13.76
60936;BMP280;46804;51.786;19.520;2023-03-23T19:37:52;157712.94;;;13.77
60936;BMP280;46804;51.786;19.520;2023-03-23T19:41:53;157698.75;;;13.72
60936;BMP280;46804;51.786;19.520;2023-03-23T19:45:55;157696.22;;;13.71
60936;BMP280;46804;51.786;19.520;2023-03-23T19:49:56;157692.34;;;13.69
60936;BMP280;46804;51.786;19.520;2023-03-23T19:53:59;157718.09;;;13.79
60936;BMP280;46804;51.786;19.520;2023-03-23T19:58:00;157745.06;;;13.90
60936;BMP280;46804;51.786;19.520;2023-03-23T20:02:01;157747.66;;;13.91
60936;BMP280;46804;51.786;19.520;2023-03-23T20:06:07;157755.38;;;13.93
60936;BMP280;46804;51.786;19.520;2023-03-23T20:10:10;157759.25;;;13.95
60936;BMP280;46804;51.786;19.520;2023-03-23T20:14:11;157764.38;;;13.97
60936;BMP280;46804;51.786;19.520;2023-03-23T20:18:11;157754.09;;;13.93
60936;BMP280;46804;51.786;19.520;2023-03-23T20:22:18;157766.94;;;13.98
60936;BMP280;46804;51.786;19.520;2023-03-23T20:26:37;157761.78;;;13.96
60936;BMP280;46804;51.786;19.520;2023-03-23T20:30:38;157768.22;;;13.98
60936;BMP280;46804;51.786;19.520;2023-03-23T20:34:39;157752.81;;;13.92
60936;BMP280;46804;51.786;19.520;2023-03-23T20:38:40;157739.97;;;13.88
60936;BMP280;46804;51.786;19.520;2023-03-23T20:42:42;157755.38;;;13.93
60936;BMP280;46804;51.786;19.520;2023-03-23T20:46:44;157741.25;;;13.88
60936;BMP280;46804;51.786;19.520;2023-03-23T20:50:45;157741.25;;;13.88
60936;BMP280;46804;51.786;19.520;2023-03-23T20:54:46;157732.22;;;13.85
60936;BMP280;46804;51.786;19.520;2023-03-23T20:58:48;157733.50;;;13.85
60936;BMP280;46804;51.786;19.520;2023-03-23T21:02:49;157733.50;;;13.85
60936;BMP280;46804;51.786;19.520;2023-03-23T21:06:54;157756.66;;;13.94
60936;BMP280;46804;51.786;19.520;2023-03-23T21:10:55;157752.81;;;13.92
60936;BMP280;46804;51.786;19.520;2023-03-23T21:14:56;157742.50;;;13.89
60936;BMP280;46804;51.786;19.520;2023-03-23T21:18:57;157721.91;;;13.81
60936;BMP280;46804;51.786;19.520;2023-03-23T21:22:59;157705.19;;;13.74
60936;BMP280;46804;51.786;19.520;2023-03-23T21:27:01;157727.06;;;13.83
60936;BMP280;46804;51.786;19.520;2023-03-23T21:31:04;157698.75;;;13.72
60936;BMP280;46804;51.786;19.520;2023-03-23T21:35:05;157679.50;;;13.64
60936;BMP280;46804;51.786;19.520;2023-03-23T21:39:06;157675.63;;;13.63
60936;BMP280;46804;51.786;19.520;2023-03-23T21:43:08;157640.91;;;13.50
60936;BMP280;46804;51.786;19.520;2023-03-23T21:47:15;157610.06;;;13.38
60936;BMP280;46804;51.786;19.520;2023-03-23T21:51:21;157588.19;;;13.29
60936;BMP280;46804;51.786;19.520;2023-03-23T21:55:22;157556.03;;;13.17
60936;BMP280;46804;51.786;19.520;2023-03-23T21:59:25;157539.31;;;13.11
60936;BMP280;46804;51.786;19.520;2023-03-23T22:03:26;157513.63;;;13.01
60936;BMP280;46804;51.786;19.520;2023-03-23T22:07:31;157504.59;;;12.97
60936;BMP280;46804;51.786;19.520;2023-03-23T22:11:33;157473.75;;;12.86
60936;BMP280;46804;51.786;19.520;2023-03-23T22:15:33;157442.84;;;12.74
60936;BMP280;46804;51.786;19.520;2023-03-23T22:19:34;157412.00;;;12.62
60936;BMP280;46804;51.786;19.520;2023-03-23T22:23:36;157412.00;;;12.62
60936;BMP280;46804;51.786;19.520;2023-03-23T22:27:37;157404.28;;;12.59
60936;BMP280;46804;51.786;19.520;2023-03-23T22:31:38;157374.72;;;12.48
60936;BMP280;46804;51.786;19.520;2023-03-23T22:35:39;157351.59;;;12.39
60936;BMP280;46804;51.786;19.520;2023-03-23T22:39:40;157361.88;;;12.43
60936;BMP280;46804;51.786;19.520;2023-03-23T22:43:40;157340.03;;;12.34
60936;BMP280;46804;51.786;19.520;2023-03-23T22:47:41;157304.06;;;12.21
60936;BMP280;46804;51.786;19.520;2023-03-23T22:51:41;157273.22;;;12.09
60936;BMP280;46804;51.786;19.520;2023-03-23T22:55:43;157229.56;;;11.92
60936;BMP280;46804;51.786;19.520;2023-03-23T22:59:47;157209.00;;;11.84
60936;BMP280;46804;51.786;19.520;2023-03-23T23:03:48;157188.41;;;11.76
60936;BMP280;46804;51.786;19.520;2023-03-23T23:07:49;157167.91;;;11.68
60936;BMP280;46804;51.786;19.520;2023-03-23T23:11:49;157146.06;;;11.60
60936;BMP280;46804;51.786;19.520;2023-03-23T23:15:54;157126.75;;;11.52
60936;BMP280;46804;51.786;19.520;2023-03-23T23:19:54;157070.22;;;11.31
60936;BMP280;46804;51.786;19.520;2023-03-23T23:23:56;157068.94;;;11.30
60936;BMP280;46804;51.786;19.520;2023-03-23T23:27:59;157045.84;;;11.21
60936;BMP280;46804;51.786;19.520;2023-03-23T23:32:00;157044.56;;;11.21
60936;BMP280;46804;51.786;19.520;2023-03-23T23:36:01;157003.50;;;11.05
60936;BMP280;46804;51.786;19.520;2023-03-23T23:40:03;156971.38;;;10.93
60936;BMP280;46804;51.786;19.520;2023-03-23T23:44:07;156954.69;;;10.86
60936;BMP280;46804;51.786;19.520;2023-03-23T23:48:08;156926.44;;;10.76
60936;BMP280;46804;51.786;19.520;2023-03-23T23:52:09;156905.91;;;10.68
60936;BMP280;46804;51.786;19.520;2023-03-23T23:56:11;156900.81;;;10.66
